sensor_id;sensor_type;location;lat;lon;timestamp;P1;durP1;ratioP1;P2;durP2;ratioP2
66212;SDS011;53015;50.046;8.238;2023-03-08T00:02:16;1.13;;;0.80;;
66212;SDS011;53015;50.046;8.238;2023-03-08T00:04:41;0.93;;;0.82;;
66212;SDS011;53015;50.046;8.238;2023-03-08T00:07:08;1.10;;;0.60;;
66212;SDS011;53015;50.046;8.238;2023-03-08T00:09:33;0.60;;;0.60;;
66212;SDS011;53015;50.046;8.238;2023-03-08T00:12:01;1.00;;;0.82;;
66212;SDS011;53015;50.046;8.238;2023-03-08T00:14:26;0.60;;;0.60;;
66212;SDS011;53015;50.046;8.238;2023-03-08T00:16:51;1.00;;;0.70;;
66212;SDS011;53015;50.046;8.238;2023-03-08T00:19:17;0.90;;;0.68;;
66212;SDS011;53015;50.046;8.238;2023-03-08T00:21:42;0.40;;;0.40;;
66212;SDS011;53015;50.046;8.238;2023-03-08T00:24:09;0.60;;;0.43;;
66212;SDS011;53015;50.046;8.238;2023-03-08T00:26:35;0.85;;;0.30;;
66212;SDS011;53015;50.046;8.238;2023-03-08T00:29:00;0.40;;;0.40;;
66212;SDS011;53015;50.046;8.238;2023-03-08T00:31:26;0.17;;;0.10;;
66212;SDS011;53015;50.046;8.238;2023-03-08T00:33:52;1.08;;;0.30;;
66212;SDS011;53015;50.046;8.238;2023-03-08T00:36:18;0.90;;;0.50;;
66212;SDS011;53015;50.046;8.238;2023-03-08T00:38:44;0.43;;;0.43;;
66212;SDS011;53015;50.046;8.238;2023-03-08T00:41:11;0.30;;;0.28;;
66212;SDS011;53015;50.046;8.238;2023-03-08T00:43:37;0.40;;;0.40;;
66212;SDS011;53015;50.046;8.238;2023-03-08T00:46:02;0.50;;;0.40;;
66212;SDS011;53015;50.046;8.238;2023-03-08T00:48:28;0.52;;;0.32;;
66212;SDS011;53015;50.046;8.238;2023-03-08T00:50:54;1.95;;;0.40;;
66212;SDS011;53015;50.046;8.238;2023-03-08T00:53:20;1.33;;;0.50;;
66212;SDS011;53015;50.046;8.238;2023-03-08T00:55:49;1.02;;;0.50;;
66212;SDS011;53015;50.046;8.238;2023-03-08T00:58:16;0.70;;;0.60;;
66212;SDS011;53015;50.046;8.238;2023-03-08T01:00:42;0.40;;;0.40;;
66212;SDS011;53015;50.046;8.238;2023-03-08T01:03:07;0.75;;;0.70;;
66212;SDS011;53015;50.046;8.238;2023-03-08T01:05:37;0.38;;;0.38;;
66212;SDS011;53015;50.046;8.238;2023-03-08T01:08:03;0.40;;;0.40;;
66212;SDS011;53015;50.046;8.238;2023-03-08T01:10:29;1.65;;;0.60;;
66212;SDS011;53015;50.046;8.238;2023-03-08T01:12:55;0.50;;;0.43;;
66212;SDS011;53015;50.046;8.238;2023-03-08T01:15:21;0.70;;;0.60;;
66212;SDS011;53015;50.046;8.238;2023-03-08T01:17:47;0.60;;;0.60;;
66212;SDS011;53015;50.046;8.238;2023-03-08T01:20:12;0.32;;;0.32;;
66212;SDS011;53015;50.046;8.238;2023-03-08T01:22:38;0.65;;;0.57;;
66212;SDS011;53015;50.046;8.238;2023-03-08T01:25:04;1.80;;;0.60;;
66212;SDS011;53015;50.046;8.238;2023-03-08T01:27:29;0.60;;;0.60;;
66212;SDS011;53015;50.046;8.238;2023-03-08T01:29:55;0.52;;;0.52;;
66212;SDS011;53015;50.046;8.238;2023-03-08T01:32:21;0.68;;;0.60;;
66212;SDS011;53015;50.046;8.238;2023-03-08T01:34:47;0.68;;;0.60;;
66212;SDS011;53015;50.046;8.238;2023-03-08T01:37:12;0.85;;;0.82;;
66212;SDS011;53015;50.046;8.238;2023-03-08T01:39:38;0.85;;;0.75;;
66212;SDS011;53015;50.046;8.238;2023-03-08T01:42:04;0.80;;;0.75;;
66212;SDS011;53015;50.046;8.238;2023-03-08T01:44:46;0.80;;;0.80;;
66212;SDS011;53015;50.046;8.238;2023-03-08T01:47:15;1.27;;;0.57;;
66212;SDS011;53015;50.046;8.238;2023-03-08T01:49:43;1.20;;;0.75;;
66212;SDS011;53015;50.046;8.238;2023-03-08T01:52:10;0.90;;;0.70;;
66212;SDS011;53015;50.046;8.238;2023-03-08T01:54:38;0.90;;;0.80;;
66212;SDS011;53015;50.046;8.238;2023-03-08T01:57:08;1.95;;;1.10;;
66212;SDS011;53015;50.046;8.238;2023-03-08T01:59:37;1.00;;;0.90;;
66212;SDS011;53015;50.046;8.238;2023-03-08T02:02:03;1.20;;;1.10;;
66212;SDS011;53015;50.046;8.238;2023-03-08T02:04:30;1.63;;;1.27;;
66212;SDS011;53015;50.046;8.238;2023-03-08T02:06:56;1.42;;;1.15;;
66212;SDS011;53015;50.046;8.238;2023-03-08T02:09:21;1.10;;;1.00;;
66212;SDS011;53015;50.046;8.238;2023-03-08T02:11:47;1.30;;;1.15;;
66212;SDS011;53015;50.046;8.238;2023-03-08T02:14:13;1.35;;;1.25;;
66212;SDS011;53015;50.046;8.238;2023-03-08T02:16:39;1.30;;;1.20;;
66212;SDS011;53015;50.046;8.238;2023-03-08T02:19:05;1.95;;;1.55;;
66212;SDS011;53015;50.046;8.238;2023-03-08T02:21:36;1.58;;;1.42;;
66212;SDS011;53015;50.046;8.238;2023-03-08T02:24:04;1.17;;;1.08;;
66212;SDS011;53015;50.046;8.238;2023-03-08T02:26:30;1.58;;;1.40;;
66212;SDS011;53015;50.046;8.238;2023-03-08T02:28:56;2.47;;;1.52;;
66212;SDS011;53015;50.046;8.238;2023-03-08T02:31:22;2.13;;;1.45;;
66212;SDS011;53015;50.046;8.238;2023-03-08T02:33:47;2.13;;;1.40;;
66212;SDS011;53015;50.046;8.238;2023-03-08T02:36:13;1.55;;;1.45;;
66212;SDS011;53015;50.046;8.238;2023-03-08T02:38:38;1.98;;;1.67;;
66212;SDS011;53015;50.046;8.238;2023-03-08T02:41:05;2.00;;;1.52;;
66212;SDS011;53015;50.046;8.238;2023-03-08T02:43:33;2.00;;;1.70;;
66212;SDS011;53015;50.046;8.238;2023-03-08T02:45:59;2.03;;;1.70;;
66212;SDS011;53015;50.046;8.238;2023-03-08T02:48:24;2.00;;;1.77;;
66212;SDS011;53015;50.046;8.238;2023-03-08T02:50:50;2.47;;;1.98;;
66212;SDS011;53015;50.046;8.238;2023-03-08T02:53:15;1.85;;;1.75;;
66212;SDS011;53015;50.046;8.238;2023-03-08T02:55:41;2.83;;;2.10;;
66212;SDS011;53015;50.046;8.238;2023-03-08T02:58:08;3.22;;;2.00;;
66212;SDS011;53015;50.046;8.238;2023-03-08T03:00:35;3.30;;;2.45;;
66212;SDS011;53015;50.046;8.238;2023-03-08T03:03:01;3.60;;;2.38;;
66212;SDS011;53015;50.046;8.238;2023-03-08T03:05:26;4.38;;;2.28;;
66212;SDS011;53015;50.046;8.238;2023-03-08T03:07:52;3.35;;;2.33;;
66212;SDS011;53015;50.046;8.238;2023-03-08T03:10:17;2.47;;;2.17;;
66212;SDS011;53015;50.046;8.238;2023-03-08T03:12:43;3.65;;;2.42;;
66212;SDS011;53015;50.046;8.238;2023-03-08T03:15:10;4.28;;;2.63;;
66212;SDS011;53015;50.046;8.238;2023-03-08T03:17:36;5.18;;;2.80;;
66212;SDS011;53015;50.046;8.238;2023-03-08T03:20:02;3.22;;;2.58;;
66212;SDS011;53015;50.046;8.238;2023-03-08T03:22:28;4.40;;;2.88;;
66212;SDS011;53015;50.046;8.238;2023-03-08T03:24:54;3.00;;;2.50;;
66212;SDS011;53015;50.046;8.238;2023-03-08T03:27:19;4.70;;;2.22;;
66212;SDS011;53015;50.046;8.238;2023-03-08T03:29:45;3.03;;;2.30;;
66212;SDS011;53015;50.046;8.238;2023-03-08T03:32:11;3.35;;;2.30;;
66212;SDS011;53015;50.046;8.238;2023-03-08T03:34:36;3.08;;;2.13;;
66212;SDS011;53015;50.046;8.238;2023-03-08T03:37:02;4.45;;;3.00;;
66212;SDS011;53015;50.046;8.238;2023-03-08T03:39:28;3.85;;;2.80;;
66212;SDS011;53015;50.046;8.238;2023-03-08T03:41:53;4.90;;;3.33;;
66212;SDS011;53015;50.046;8.238;2023-03-08T03:44:19;5.10;;;3.40;;
66212;SDS011;53015;50.046;8.238;2023-03-08T03:46:44;3.53;;;2.65;;
66212;SDS011;53015;50.046;8.238;2023-03-08T03:49:10;5.43;;;3.17;;
66212;SDS011;53015;50.046;8.238;2023-03-08T03:51:36;5.70;;;3.15;;
66212;SDS011;53015;50.046;8.238;2023-03-08T03:54:01;5.35;;;3.33;;
66212;SDS011;53015;50.046;8.238;2023-03-08T03:56:27;6.10;;;4.03;;
66212;SDS011;53015;50.046;8.238;2023-03-08T03:58:52;5.15;;;3.75;;
66212;SDS011;53015;50.046;8.238;2023-03-08T04:01:19;7.60;;;4.45;;
66212;SDS011;53015;50.046;8.238;2023-03-08T04:03:46;4.75;;;3.40;;
66212;SDS011;53015;50.046;8.238;2023-03-08T04:06:14;6.32;;;4.15;;
66212;SDS011;53015;50.046;8.238;2023-03-08T04:08:41;6.72;;;4.15;;
66212;SDS011;53015;50.046;8.238;2023-03-08T04:11:07;5.50;;;4.07;;
66212;SDS011;53015;50.046;8.238;2023-03-08T04:13:32;6.25;;;4.13;;
66212;SDS011;53015;50.046;8.238;2023-03-08T04:15:58;7.80;;;4.47;;
66212;SDS011;53015;50.046;8.238;2023-03-08T04:18:23;6.88;;;4.00;;
66212;SDS011;53015;50.046;8.238;2023-03-08T04:20:49;8.45;;;4.88;;
66212;SDS011;53015;50.046;8.238;2023-03-08T04:23:15;8.63;;;4.97;;
66212;SDS011;53015;50.046;8.238;2023-03-08T04:25:41;11.18;;;5.45;;
66212;SDS011;53015;50.046;8.238;2023-03-08T04:28:06;9.68;;;5.60;;
66212;SDS011;53015;50.046;8.238;2023-03-08T04:30:31;6.18;;;4.72;;
66212;SDS011;53015;50.046;8.238;2023-03-08T04:32:57;7.03;;;4.78;;
66212;SDS011;53015;50.046;8.238;2023-03-08T04:35:22;9.95;;;5.40;;
66212;SDS011;53015;50.046;8.238;2023-03-08T04:37:48;7.75;;;5.13;;
66212;SDS011;53015;50.046;8.238;2023-03-08T04:40:14;8.05;;;4.88;;
66212;SDS011;53015;50.046;8.238;2023-03-08T04:42:40;8.95;;;5.03;;
66212;SDS011;53015;50.046;8.238;2023-03-08T04:45:06;9.50;;;5.50;;
66212;SDS011;53015;50.046;8.238;2023-03-08T04:47:32;9.20;;;4.68;;
66212;SDS011;53015;50.046;8.238;2023-03-08T04:49:57;8.45;;;4.65;;
66212;SDS011;53015;50.046;8.238;2023-03-08T04:52:23;7.32;;;4.88;;
66212;SDS011;53015;50.046;8.238;2023-03-08T04:54:49;8.05;;;4.97;;
66212;SDS011;53015;50.046;8.238;2023-03-08T04:57:15;8.32;;;4.53;;
66212;SDS011;53015;50.046;8.238;2023-03-08T04:59:41;8.85;;;5.07;;
66212;SDS011;53015;50.046;8.238;2023-03-08T05:02:07;8.32;;;5.20;;
66212;SDS011;53015;50.046;8.238;2023-03-08T05:04:33;11.45;;;5.00;;
66212;SDS011;53015;50.046;8.238;2023-03-08T05:06:58;10.27;;;4.95;;
66212;SDS011;53015;50.046;8.238;2023-03-08T05:09:24;10.32;;;5.97;;
66212;SDS011;53015;50.046;8.238;2023-03-08T05:11:49;10.07;;;5.50;;
66212;SDS011;53015;50.046;8.238;2023-03-08T05:14:15;10.90;;;6.40;;
66212;SDS011;53015;50.046;8.238;2023-03-08T05:16:41;10.27;;;6.07;;
66212;SDS011;53015;50.046;8.238;2023-03-08T05:19:06;8.90;;;5.80;;
66212;SDS011;53015;50.046;8.238;2023-03-08T05:21:32;8.32;;;5.82;;
66212;SDS011;53015;50.046;8.238;2023-03-08T05:23:57;11.40;;;6.13;;
66212;SDS011;53015;50.046;8.238;2023-03-08T05:26:23;12.27;;;6.82;;
66212;SDS011;53015;50.046;8.238;2023-03-08T05:28:49;12.25;;;6.13;;
66212;SDS011;53015;50.046;8.238;2023-03-08T05:31:15;11.48;;;6.03;;
66212;SDS011;53015;50.046;8.238;2023-03-08T05:33:42;11.43;;;6.55;;
66212;SDS011;53015;50.046;8.238;2023-03-08T05:36:10;13.02;;;7.20;;
66212;SDS011;53015;50.046;8.238;2023-03-08T05:38:35;13.43;;;6.43;;
66212;SDS011;53015;50.046;8.238;2023-03-08T05:41:01;14.13;;;7.35;;
66212;SDS011;53015;50.046;8.238;2023-03-08T05:43:28;14.90;;;6.85;;
66212;SDS011;53015;50.046;8.238;2023-03-08T05:45:54;13.98;;;7.68;;
66212;SDS011;53015;50.046;8.238;2023-03-08T05:48:21;13.88;;;7.80;;
66212;SDS011;53015;50.046;8.238;2023-03-08T05:50:46;13.63;;;7.90;;
66212;SDS011;53015;50.046;8.238;2023-03-08T05:53:12;14.52;;;7.65;;
66212;SDS011;53015;50.046;8.238;2023-03-08T05:55:37;14.35;;;7.38;;
66212;SDS011;53015;50.046;8.238;2023-03-08T05:58:03;15.63;;;7.82;;
66212;SDS011;53015;50.046;8.238;2023-03-08T06:00:28;13.50;;;7.80;;
66212;SDS011;53015;50.046;8.238;2023-03-08T06:02:54;13.80;;;7.95;;
66212;SDS011;53015;50.046;8.238;2023-03-08T06:05:20;17.30;;;8.13;;
66212;SDS011;53015;50.046;8.238;2023-03-08T06:07:46;15.75;;;8.00;;
66212;SDS011;53015;50.046;8.238;2023-03-08T06:10:11;15.13;;;7.57;;
66212;SDS011;53015;50.046;8.238;2023-03-08T06:12:36;21.25;;;8.98;;
66212;SDS011;53015;50.046;8.238;2023-03-08T06:15:02;16.23;;;7.63;;
66212;SDS011;53015;50.046;8.238;2023-03-08T06:17:28;15.63;;;8.13;;
66212;SDS011;53015;50.046;8.238;2023-03-08T06:19:54;16.40;;;8.38;;
66212;SDS011;53015;50.046;8.238;2023-03-08T06:22:20;13.77;;;7.63;;
66212;SDS011;53015;50.046;8.238;2023-03-08T06:24:45;15.25;;;8.52;;
66212;SDS011;53015;50.046;8.238;2023-03-08T06:27:11;12.90;;;7.47;;
66212;SDS011;53015;50.046;8.238;2023-03-08T06:29:36;15.20;;;7.88;;
66212;SDS011;53015;50.046;8.238;2023-03-08T06:32:02;10.95;;;6.55;;
66212;SDS011;53015;50.046;8.238;2023-03-08T06:34:28;12.60;;;7.45;;
66212;SDS011;53015;50.046;8.238;2023-03-08T06:36:54;13.07;;;7.22;;
66212;SDS011;53015;50.046;8.238;2023-03-08T06:39:20;13.40;;;7.88;;
66212;SDS011;53015;50.046;8.238;2023-03-08T06:41:47;14.65;;;7.70;;
66212;SDS011;53015;50.046;8.238;2023-03-08T06:44:13;14.63;;;7.40;;
66212;SDS011;53015;50.046;8.238;2023-03-08T06:46:39;13.32;;;7.88;;
66212;SDS011;53015;50.046;8.238;2023-03-08T06:49:05;14.48;;;8.10;;
66212;SDS011;53015;50.046;8.238;2023-03-08T06:51:30;12.27;;;6.43;;
66212;SDS011;53015;50.046;8.238;2023-03-08T06:53:55;13.30;;;7.35;;
66212;SDS011;53015;50.046;8.238;2023-03-08T06:56:22;16.08;;;7.03;;
66212;SDS011;53015;50.046;8.238;2023-03-08T06:58:47;13.80;;;7.30;;
66212;SDS011;53015;50.046;8.238;2023-03-08T07:01:13;14.48;;;7.30;;
66212;SDS011;53015;50.046;8.238;2023-03-08T07:03:38;13.35;;;7.68;;
66212;SDS011;53015;50.046;8.238;2023-03-08T07:06:06;12.95;;;7.47;;
66212;SDS011;53015;50.046;8.238;2023-03-08T07:08:32;14.70;;;8.07;;
66212;SDS011;53015;50.046;8.238;2023-03-08T07:10:59;14.98;;;7.90;;
66212;SDS011;53015;50.046;8.238;2023-03-08T07:13:25;15.35;;;7.85;;
66212;SDS011;53015;50.046;8.238;2023-03-08T07:15:51;14.63;;;7.35;;
66212;SDS011;53015;50.046;8.238;2023-03-08T07:18:17;12.52;;;6.93;;
66212;SDS011;53015;50.046;8.238;2023-03-08T07:20:42;12.23;;;7.32;;
66212;SDS011;53015;50.046;8.238;2023-03-08T07:23:08;12.23;;;6.88;;
66212;SDS011;53015;50.046;8.238;2023-03-08T07:25:33;13.95;;;6.50;;
66212;SDS011;53015;50.046;8.238;2023-03-08T07:28:01;12.50;;;6.45;;
66212;SDS011;53015;50.046;8.238;2023-03-08T07:30:27;12.32;;;7.10;;
66212;SDS011;53015;50.046;8.238;2023-03-08T07:32:53;15.65;;;6.70;;
66212;SDS011;53015;50.046;8.238;2023-03-08T07:35:18;12.20;;;6.53;;
66212;SDS011;53015;50.046;8.238;2023-03-08T07:37:44;9.55;;;6.25;;
66212;SDS011;53015;50.046;8.238;2023-03-08T07:40:11;13.13;;;6.75;;
66212;SDS011;53015;50.046;8.238;2023-03-08T07:42:38;13.27;;;6.00;;
66212;SDS011;53015;50.046;8.238;2023-03-08T07:45:03;15.35;;;7.50;;
66212;SDS011;53015;50.046;8.238;2023-03-08T07:47:30;12.75;;;6.40;;
66212;SDS011;53015;50.046;8.238;2023-03-08T07:49:56;17.98;;;8.23;;
66212;SDS011;53015;50.046;8.238;2023-03-08T07:52:25;15.02;;;7.07;;
66212;SDS011;53015;50.046;8.238;2023-03-08T07:54:51;15.93;;;7.40;;
66212;SDS011;53015;50.046;8.238;2023-03-08T07:57:16;11.77;;;7.20;;
66212;SDS011;53015;50.046;8.238;2023-03-08T07:59:42;11.52;;;7.10;;
66212;SDS011;53015;50.046;8.238;2023-03-08T08:02:08;14.07;;;6.90;;
66212;SDS011;53015;50.046;8.238;2023-03-08T08:04:36;15.27;;;7.40;;
66212;SDS011;53015;50.046;8.238;2023-03-08T08:07:01;16.83;;;7.28;;
66212;SDS011;53015;50.046;8.238;2023-03-08T08:09:27;14.85;;;7.38;;
66212;SDS011;53015;50.046;8.238;2023-03-08T08:11:52;13.73;;;7.10;;
66212;SDS011;53015;50.046;8.238;2023-03-08T08:14:18;18.83;;;8.07;;
66212;SDS011;53015;50.046;8.238;2023-03-08T08:16:43;11.40;;;6.57;;
66212;SDS011;53015;50.046;8.238;2023-03-08T08:19:09;13.43;;;7.18;;
66212;SDS011;53015;50.046;8.238;2023-03-08T08:21:35;12.15;;;6.85;;
66212;SDS011;53015;50.046;8.238;2023-03-08T08:24:01;16.55;;;8.45;;
66212;SDS011;53015;50.046;8.238;2023-03-08T08:26:26;12.82;;;7.43;;
66212;SDS011;53015;50.046;8.238;2023-03-08T08:28:52;15.70;;;7.85;;
66212;SDS011;53015;50.046;8.238;2023-03-08T08:31:19;14.43;;;7.45;;
66212;SDS011;53015;50.046;8.238;2023-03-08T08:33:45;15.73;;;8.07;;
66212;SDS011;53015;50.046;8.238;2023-03-08T08:36:12;18.08;;;8.85;;
66212;SDS011;53015;50.046;8.238;2023-03-08T08:38:39;16.13;;;8.30;;
66212;SDS011;53015;50.046;8.238;2023-03-08T08:41:06;19.38;;;10.02;;
66212;SDS011;53015;50.046;8.238;2023-03-08T08:43:33;14.80;;;8.15;;
66212;SDS011;53015;50.046;8.238;2023-03-08T08:46:00;18.15;;;8.38;;
66212;SDS011;53015;50.046;8.238;2023-03-08T08:48:26;17.90;;;9.35;;
66212;SDS011;53015;50.046;8.238;2023-03-08T08:50:52;16.30;;;8.90;;
66212;SDS011;53015;50.046;8.238;2023-03-08T08:53:18;18.83;;;9.73;;
66212;SDS011;53015;50.046;8.238;2023-03-08T08:55:45;17.00;;;9.32;;
66212;SDS011;53015;50.046;8.238;2023-03-08T08:58:10;20.17;;;10.52;;
66212;SDS011;53015;50.046;8.238;2023-03-08T09:00:36;19.75;;;9.88;;
66212;SDS011;53015;50.046;8.238;2023-03-08T09:03:02;31.15;;;10.82;;
66212;SDS011;53015;50.046;8.238;2023-03-08T09:05:29;26.40;;;10.57;;
66212;SDS011;53015;50.046;8.238;2023-03-08T09:07:55;20.70;;;10.07;;
66212;SDS011;53015;50.046;8.238;2023-03-08T09:10:22;16.60;;;10.00;;
66212;SDS011;53015;50.046;8.238;2023-03-08T09:12:48;20.35;;;10.70;;
66212;SDS011;53015;50.046;8.238;2023-03-08T09:15:13;19.67;;;10.10;;
66212;SDS011;53015;50.046;8.238;2023-03-08T09:17:39;19.05;;;9.07;;
66212;SDS011;53015;50.046;8.238;2023-03-08T09:20:05;17.10;;;8.43;;
66212;SDS011;53015;50.046;8.238;2023-03-08T09:22:31;15.63;;;7.95;;
66212;SDS011;53015;50.046;8.238;2023-03-08T09:24:57;21.30;;;9.48;;
66212;SDS011;53015;50.046;8.238;2023-03-08T09:27:22;17.05;;;9.50;;
66212;SDS011;53015;50.046;8.238;2023-03-08T09:29:48;20.58;;;9.57;;
66212;SDS011;53015;50.046;8.238;2023-03-08T09:32:14;18.15;;;9.27;;
66212;SDS011;53015;50.046;8.238;2023-03-08T09:34:40;16.13;;;8.68;;
66212;SDS011;53015;50.046;8.238;2023-03-08T09:37:05;15.23;;;8.85;;
66212;SDS011;53015;50.046;8.238;2023-03-08T09:39:31;17.67;;;9.93;;
66212;SDS011;53015;50.046;8.238;2023-03-08T09:41:56;16.00;;;9.55;;
66212;SDS011;53015;50.046;8.238;2023-03-08T09:47:31;19.02;;;9.18;;
66212;SDS011;53015;50.046;8.238;2023-03-08T09:50:05;20.73;;;9.95;;
66212;SDS011;53015;50.046;8.238;2023-03-08T09:52:41;15.73;;;9.40;;
66212;SDS011;53015;50.046;8.238;2023-03-08T09:55:12;18.55;;;9.65;;
66212;SDS011;53015;50.046;8.238;2023-03-08T09:57:46;16.95;;;9.30;;
66212;SDS011;53015;50.046;8.238;2023-03-08T10:02:46;16.17;;;9.40;;
66212;SDS011;53015;50.046;8.238;2023-03-08T10:05:21;17.42;;;9.30;;
66212;SDS011;53015;50.046;8.238;2023-03-08T10:07:50;23.63;;;10.27;;
66212;SDS011;53015;50.046;8.238;2023-03-08T10:10:22;21.35;;;11.68;;
66212;SDS011;53015;50.046;8.238;2023-03-08T10:12:58;19.20;;;10.30;;
66212;SDS011;53015;50.046;8.238;2023-03-08T10:15:32;21.55;;;9.88;;
66212;SDS011;53015;50.046;8.238;2023-03-08T10:18:04;15.60;;;9.13;;
66212;SDS011;53015;50.046;8.238;2023-03-08T10:20:37;16.30;;;9.50;;
66212;SDS011;53015;50.046;8.238;2023-03-08T10:23:09;17.83;;;9.63;;
66212;SDS011;53015;50.046;8.238;2023-03-08T10:25:38;20.92;;;12.35;;
66212;SDS011;53015;50.046;8.238;2023-03-08T10:28:16;17.70;;;10.60;;
66212;SDS011;53015;50.046;8.238;2023-03-08T10:30:44;18.25;;;10.40;;
66212;SDS011;53015;50.046;8.238;2023-03-08T10:33:12;18.50;;;10.45;;
66212;SDS011;53015;50.046;8.238;2023-03-08T10:35:49;18.20;;;11.00;;
66212;SDS011;53015;50.046;8.238;2023-03-08T10:38:18;17.38;;;10.35;;
66212;SDS011;53015;50.046;8.238;2023-03-08T10:40:44;16.90;;;10.13;;
66212;SDS011;53015;50.046;8.238;2023-03-08T10:43:13;17.65;;;10.45;;
66212;SDS011;53015;50.046;8.238;2023-03-08T10:45:44;17.73;;;9.50;;
66212;SDS011;53015;50.046;8.238;2023-03-08T10:48:16;19.05;;;9.95;;
66212;SDS011;53015;50.046;8.238;2023-03-08T10:50:44;15.95;;;10.20;;
66212;SDS011;53015;50.046;8.238;2023-03-08T10:53:13;16.08;;;9.77;;
66212;SDS011;53015;50.046;8.238;2023-03-08T10:55:42;15.32;;;10.30;;
66212;SDS011;53015;50.046;8.238;2023-03-08T10:58:22;14.98;;;9.60;;
66212;SDS011;53015;50.046;8.238;2023-03-08T11:00:53;12.68;;;8.25;;
66212;SDS011;53015;50.046;8.238;2023-03-08T11:03:21;18.58;;;9.82;;
66212;SDS011;53015;50.046;8.238;2023-03-08T11:05:52;18.00;;;10.02;;
66212;SDS011;53015;50.046;8.238;2023-03-08T11:08:19;13.25;;;8.90;;
66212;SDS011;53015;50.046;8.238;2023-03-08T11:10:46;16.10;;;10.15;;
66212;SDS011;53015;50.046;8.238;2023-03-08T11:13:17;16.75;;;10.00;;
66212;SDS011;53015;50.046;8.238;2023-03-08T11:15:48;14.73;;;9.95;;
66212;SDS011;53015;50.046;8.238;2023-03-08T11:18:22;15.55;;;9.38;;
66212;SDS011;53015;50.046;8.238;2023-03-08T11:20:56;13.35;;;9.50;;
66212;SDS011;53015;50.046;8.238;2023-03-08T11:23:28;18.70;;;10.95;;
66212;SDS011;53015;50.046;8.238;2023-03-08T11:26:02;14.75;;;9.95;;
66212;SDS011;53015;50.046;8.238;2023-03-08T11:28:43;17.08;;;11.02;;
66212;SDS011;53015;50.046;8.238;2023-03-08T11:31:18;17.73;;;11.20;;
66212;SDS011;53015;50.046;8.238;2023-03-08T11:36:55;18.20;;;11.45;;
66212;SDS011;53015;50.046;8.238;2023-03-08T11:39:27;19.40;;;11.32;;
66212;SDS011;53015;50.046;8.238;2023-03-08T11:41:58;17.70;;;10.95;;
66212;SDS011;53015;50.046;8.238;2023-03-08T11:44:40;16.67;;;10.68;;
66212;SDS011;53015;50.046;8.238;2023-03-08T11:47:29;15.25;;;9.80;;
66212;SDS011;53015;50.046;8.238;2023-03-08T11:50:05;20.63;;;12.13;;
66212;SDS011;53015;50.046;8.238;2023-03-08T11:52:39;18.42;;;10.90;;
66212;SDS011;53015;50.046;8.238;2023-03-08T11:55:18;20.17;;;11.95;;
66212;SDS011;53015;50.046;8.238;2023-03-08T11:57:57;20.15;;;10.38;;
66212;SDS011;53015;50.046;8.238;2023-03-08T12:00:27;15.68;;;10.60;;
66212;SDS011;53015;50.046;8.238;2023-03-08T12:02:56;16.65;;;10.48;;
66212;SDS011;53015;50.046;8.238;2023-03-08T12:05:28;16.58;;;10.23;;
66212;SDS011;53015;50.046;8.238;2023-03-08T12:07:57;16.27;;;10.15;;
66212;SDS011;53015;50.046;8.238;2023-03-08T12:10:27;14.52;;;9.73;;
66212;SDS011;53015;50.046;8.238;2023-03-08T12:12:54;14.45;;;10.05;;
66212;SDS011;53015;50.046;8.238;2023-03-08T12:15:25;45.72;;;25.13;;
66212;SDS011;53015;50.046;8.238;2023-03-08T12:17:55;20.30;;;12.18;;
66212;SDS011;53015;50.046;8.238;2023-03-08T12:20:25;16.38;;;9.50;;
66212;SDS011;53015;50.046;8.238;2023-03-08T12:22:59;14.82;;;8.93;;
66212;SDS011;53015;50.046;8.238;2023-03-08T12:25:33;12.73;;;7.95;;
66212;SDS011;53015;50.046;8.238;2023-03-08T12:28:03;14.35;;;8.68;;
66212;SDS011;53015;50.046;8.238;2023-03-08T12:30:38;12.98;;;8.27;;
66212;SDS011;53015;50.046;8.238;2023-03-08T12:33:10;10.57;;;7.95;;
66212;SDS011;53015;50.046;8.238;2023-03-08T12:35:49;14.85;;;8.85;;
66212;SDS011;53015;50.046;8.238;2023-03-08T12:38:33;12.43;;;8.60;;
66212;SDS011;53015;50.046;8.238;2023-03-08T12:41:00;13.30;;;8.80;;
66212;SDS011;53015;50.046;8.238;2023-03-08T12:43:27;13.43;;;8.30;;
66212;SDS011;53015;50.046;8.238;2023-03-08T12:45:59;14.05;;;8.60;;
66212;SDS011;53015;50.046;8.238;2023-03-08T12:48:28;13.20;;;8.57;;
66212;SDS011;53015;50.046;8.238;2023-03-08T12:50:58;12.70;;;8.55;;
66212;SDS011;53015;50.046;8.238;2023-03-08T12:53:35;12.10;;;8.82;;
66212;SDS011;53015;50.046;8.238;2023-03-08T12:56:04;12.60;;;8.65;;
66212;SDS011;53015;50.046;8.238;2023-03-08T12:58:38;11.35;;;8.57;;
66212;SDS011;53015;50.046;8.238;2023-03-08T13:01:22;8.98;;;7.60;;
66212;SDS011;53015;50.046;8.238;2023-03-08T13:03:53;12.90;;;8.60;;
66212;SDS011;53015;50.046;8.238;2023-03-08T13:06:31;10.75;;;8.13;;
66212;SDS011;53015;50.046;8.238;2023-03-08T13:09:13;11.13;;;7.75;;
66212;SDS011;53015;50.046;8.238;2023-03-08T13:11:46;9.97;;;7.40;;
66212;SDS011;53015;50.046;8.238;2023-03-08T13:14:23;11.93;;;7.82;;
66212;SDS011;53015;50.046;8.238;2023-03-08T13:16:50;11.32;;;7.95;;
66212;SDS011;53015;50.046;8.238;2023-03-08T13:19:17;12.80;;;8.00;;
66212;SDS011;53015;50.046;8.238;2023-03-08T13:21:51;11.53;;;8.20;;
66212;SDS011;53015;50.046;8.238;2023-03-08T13:24:27;19.02;;;11.18;;
66212;SDS011;53015;50.046;8.238;2023-03-08T13:27:04;12.02;;;8.65;;
66212;SDS011;53015;50.046;8.238;2023-03-08T13:29:40;10.07;;;7.45;;
66212;SDS011;53015;50.046;8.238;2023-03-08T13:32:10;11.50;;;8.07;;
66212;SDS011;53015;50.046;8.238;2023-03-08T13:34:39;9.02;;;7.30;;
66212;SDS011;53015;50.046;8.238;2023-03-08T13:37:17;10.80;;;7.65;;
66212;SDS011;53015;50.046;8.238;2023-03-08T13:39:49;10.10;;;7.30;;
66212;SDS011;53015;50.046;8.238;2023-03-08T13:42:16;12.30;;;7.95;;
66212;SDS011;53015;50.046;8.238;2023-03-08T13:44:41;12.20;;;7.78;;
66212;SDS011;53015;50.046;8.238;2023-03-08T13:47:14;10.35;;;7.38;;
66212;SDS011;53015;50.046;8.238;2023-03-08T13:49:45;14.02;;;8.20;;
66212;SDS011;53015;50.046;8.238;2023-03-08T13:52:14;10.88;;;7.63;;
66212;SDS011;53015;50.046;8.238;2023-03-08T13:54:43;15.65;;;9.07;;
66212;SDS011;53015;50.046;8.238;2023-03-08T13:57:16;12.15;;;9.13;;
66212;SDS011;53015;50.046;8.238;2023-03-08T13:59:46;11.50;;;8.48;;
66212;SDS011;53015;50.046;8.238;2023-03-08T14:02:14;14.55;;;8.80;;
66212;SDS011;53015;50.046;8.238;2023-03-08T14:04:43;15.10;;;8.60;;
66212;SDS011;53015;50.046;8.238;2023-03-08T14:07:13;11.88;;;8.13;;
66212;SDS011;53015;50.046;8.238;2023-03-08T14:09:44;19.63;;;8.55;;
66212;SDS011;53015;50.046;8.238;2023-03-08T14:12:11;23.55;;;10.52;;
66212;SDS011;53015;50.046;8.238;2023-03-08T14:14:41;13.85;;;9.10;;
66212;SDS011;53015;50.046;8.238;2023-03-08T14:17:12;15.00;;;9.32;;
66212;SDS011;53015;50.046;8.238;2023-03-08T14:19:43;14.27;;;8.85;;
66212;SDS011;53015;50.046;8.238;2023-03-08T14:22:09;14.88;;;8.68;;
66212;SDS011;53015;50.046;8.238;2023-03-08T14:24:36;13.13;;;8.70;;
66212;SDS011;53015;50.046;8.238;2023-03-08T14:27:16;14.82;;;9.45;;
66212;SDS011;53015;50.046;8.238;2023-03-08T14:29:59;13.98;;;9.40;;
66212;SDS011;53015;50.046;8.238;2023-03-08T14:32:27;12.25;;;9.13;;
66212;SDS011;53015;50.046;8.238;2023-03-08T14:35:02;13.20;;;8.90;;
66212;SDS011;53015;50.046;8.238;2023-03-08T14:37:30;12.88;;;9.13;;
66212;SDS011;53015;50.046;8.238;2023-03-08T14:40:10;12.63;;;8.55;;
66212;SDS011;53015;50.046;8.238;2023-03-08T14:42:48;14.02;;;8.70;;
66212;SDS011;53015;50.046;8.238;2023-03-08T14:45:18;12.70;;;8.63;;
66212;SDS011;53015;50.046;8.238;2023-03-08T14:47:47;16.08;;;9.57;;
66212;SDS011;53015;50.046;8.238;2023-03-08T14:50:22;15.35;;;9.30;;
66212;SDS011;53015;50.046;8.238;2023-03-08T14:52:49;14.93;;;9.30;;